createdAt,value
2018-09-22T00:00:43.725Z,0.00
2018-09-22T00:01:43.734Z,0.00
2018-09-22T00:02:43.700Z,0.00
2018-09-22T00:03:43.584Z,0.00
2018-09-22T00:04:43.577Z,0.00
2018-09-22T00:05:43.628Z,0.00
2018-09-22T00:06:43.568Z,0.00
2018-09-22T00:07:43.557Z,0.00
2018-09-22T00:08:43.552Z,0.00
2018-09-22T00:09:43.618Z,0.00
2018-09-22T00:10:43.512Z,0.00
2018-09-22T00:11:43.613Z,0.00
2018-09-22T00:12:43.596Z,0.00
2018-09-22T00:13:43.489Z,0.00
2018-09-22T00:14:44.491Z,0.00
2018-09-22T00:15:43.563Z,0.00
2018-09-22T00:16:43.457Z,0.00
2018-09-22T00:17:43.460Z,0.00
2018-09-22T00:18:43.803Z,0.00
2018-09-22T00:19:43.415Z,0.00
2018-09-22T00:20:43.663Z,0.00
2018-09-22T00:21:43.543Z,0.00
2018-09-22T00:22:43.395Z,0.00
2018-09-22T00:23:43.751Z,0.00
2018-09-22T00:24:43.359Z,0.00
2018-09-22T00:25:43.445Z,0.00
2018-09-22T00:26:43.456Z,0.00
2018-09-22T00:27:43.348Z,0.00
2018-09-22T00:28:43.322Z,0.00
2018-09-22T00:29:43.439Z,0.00
2018-09-22T00:30:43.320Z,0.00
2018-09-22T00:31:43.291Z,0.00
2018-09-22T00:32:43.293Z,0.00
2018-09-22T00:33:43.268Z,0.00
2018-09-22T00:34:43.360Z,0.00
2018-09-22T00:35:43.257Z,0.00
2018-09-22T00:36:43.339Z,0.00
2018-09-22T00:37:43.244Z,0.00
2018-09-22T00:38:43.223Z,0.00
2018-09-22T00:39:43.298Z,0.00
2018-09-22T00:40:43.306Z,0.00
2018-09-22T00:41:43.181Z,0.00
2018-09-22T00:42:43.313Z,0.00
2018-09-22T00:43:43.156Z,0.00
2018-09-22T00:44:43.147Z,0.00
2018-09-22T00:45:43.135Z,0.00
2018-09-22T00:46:43.141Z,0.00
2018-09-22T00:47:43.527Z,0.00
2018-09-22T00:48:43.122Z,0.00
2018-09-22T00:49:43.188Z,0.00
2018-09-22T00:50:43.221Z,0.00
2018-09-22T00:51:43.088Z,0.00
2018-09-22T00:52:43.080Z,0.00
2018-09-22T00:53:43.319Z,0.00
2018-09-22T00:54:43.124Z,0.00
2018-09-22T00:55:43.170Z,0.00
2018-09-22T00:56:43.021Z,0.00
2018-09-22T00:57:43.007Z,0.00
2018-09-22T00:58:43.123Z,0.00
2018-09-22T00:59:43.250Z,0.00
2018-09-22T01:00:43.110Z,0.00
2018-09-22T01:01:43.029Z,0.00
2018-09-22T01:02:42.956Z,0.00
2018-09-22T01:03:42.971Z,0.00
2018-09-22T01:04:42.938Z,0.00
2018-09-22T01:05:43.024Z,0.00
2018-09-22T01:06:42.922Z,0.00
2018-09-22T01:07:43.028Z,0.00
2018-09-22T01:08:42.920Z,0.00
2018-09-22T01:09:42.956Z,0.00
2018-09-22T01:10:42.868Z,0.00
2018-09-22T01:11:42.875Z,0.00
2018-09-22T01:12:42.946Z,0.00
2018-09-22T01:13:42.958Z,0.00
2018-09-22T01:14:42.827Z,0.00
2018-09-22T01:15:43.093Z,0.00
2018-09-22T01:16:42.806Z,0.00
2018-09-22T01:17:42.798Z,0.00
2018-09-22T01:18:42.811Z,0.00
2018-09-22T01:19:42.789Z,0.00
2018-09-22T01:20:43.031Z,0.00
2018-09-22T01:21:42.766Z,0.00
2018-09-22T01:22:42.740Z,0.00
2018-09-22T01:23:42.759Z,0.00
2018-09-22T01:24:42.727Z,0.00
2018-09-22T01:25:42.980Z,0.00
2018-09-22T01:26:42.702Z,0.00
2018-09-22T01:27:42.702Z,0.00
2018-09-22T01:28:42.728Z,0.00
2018-09-22T01:29:43.060Z,0.00
2018-09-22T01:30:42.662Z,0.00
2018-09-22T01:31:42.660Z,0.00
2018-09-22T01:32:42.634Z,0.00
2018-09-22T01:33:42.918Z,0.00
2018-09-22T01:34:42.705Z,0.00
2018-09-22T01:35:42.698Z,0.00
2018-09-22T01:36:42.596Z,0.00
2018-09-22T01:37:42.596Z,0.00
2018-09-22T01:38:42.573Z,0.00
2018-09-22T01:39:42.634Z,0.00
2018-09-22T01:40:42.551Z,0.00
2018-09-22T01:41:42.539Z,0.00
2018-09-22T01:42:42.530Z,0.00
2018-09-22T01:43:42.528Z,0.00
2018-09-22T01:44:42.524Z,0.00
2018-09-22T01:45:42.500Z,0.00
2018-09-22T01:46:43.008Z,0.00
2018-09-22T01:47:42.491Z,0.00
2018-09-22T01:48:42.471Z,0.00
2018-09-22T01:49:42.735Z,0.00
2018-09-22T01:50:42.451Z,0.00
2018-09-22T01:51:42.433Z,0.00
2018-09-22T01:52:42.426Z,0.00
2018-09-22T01:53:42.413Z,0.00
2018-09-22T01:54:42.674Z,0.00
2018-09-22T01:55:42.398Z,0.00
2018-09-22T01:56:42.393Z,0.00
2018-09-22T01:57:42.373Z,0.00
2018-09-22T01:58:42.529Z,0.00
2018-09-22T01:59:42.364Z,0.00
2018-09-22T02:00:42.457Z,0.00
2018-09-22T02:01:42.332Z,0.00
2018-09-22T02:02:42.314Z,0.00
2018-09-22T02:03:42.309Z,0.00
2018-09-22T02:04:42.333Z,0.00
2018-09-22T02:05:42.289Z,0.00
2018-09-22T02:06:42.274Z,0.00
2018-09-22T02:07:42.267Z,0.00
2018-09-22T02:08:42.270Z,0.00
2018-09-22T02:09:42.383Z,0.00
2018-09-22T02:10:42.372Z,0.00
2018-09-22T02:11:42.487Z,0.00
2018-09-22T02:12:42.212Z,0.00
2018-09-22T02:13:42.927Z,0.00
2018-09-22T02:14:42.474Z,0.00
2018-09-22T02:15:42.192Z,0.00
2018-09-22T02:16:42.165Z,0.00
2018-09-22T02:17:42.416Z,0.00
2018-09-22T02:18:42.151Z,0.00
2018-09-22T02:19:42.303Z,0.00
2018-09-22T02:20:42.230Z,0.00
2018-09-22T02:21:42.134Z,0.00
2018-09-22T02:22:42.104Z,0.00
2018-09-22T02:23:42.359Z,0.00
2018-09-22T02:24:42.210Z,0.00
2018-09-22T02:25:42.178Z,0.00
2018-09-22T02:26:42.333Z,0.00
2018-09-22T02:27:42.153Z,0.00
2018-09-22T02:28:42.309Z,0.00
2018-09-22T02:29:42.144Z,0.00
2018-09-22T02:30:42.050Z,0.00
2018-09-22T02:31:42.407Z,0.00
2018-09-22T02:32:42.111Z,0.00
2018-09-22T02:33:41.986Z,0.00
2018-09-22T02:34:42.087Z,0.00
2018-09-22T02:35:41.971Z,0.00
2018-09-22T02:36:41.954Z,0.00
2018-09-22T02:37:41.963Z,0.00
2018-09-22T02:38:42.207Z,0.00
2018-09-22T02:39:42.012Z,0.00
2018-09-22T02:40:41.935Z,0.00
2018-09-22T02:41:41.906Z,0.00
2018-09-22T02:42:41.892Z,0.00
2018-09-22T02:43:41.877Z,0.00
2018-09-22T02:44:41.882Z,0.00
2018-09-22T02:45:41.875Z,0.00
2018-09-22T02:46:41.851Z,0.00
2018-09-22T02:47:41.838Z,0.00
2018-09-22T02:48:41.826Z,0.00
2018-09-22T02:49:41.846Z,0.00
2018-09-22T02:50:42.068Z,0.00
2018-09-22T02:51:41.797Z,0.00
2018-09-22T02:52:41.782Z,0.00
2018-09-22T02:53:41.770Z,0.00
2018-09-22T02:54:41.777Z,0.00
2018-09-22T02:55:41.875Z,0.00
2018-09-22T02:56:41.746Z,0.00
2018-09-22T02:57:42.107Z,0.00
2018-09-22T02:58:41.725Z,0.00
2018-09-22T02:59:41.729Z,0.00
2018-09-22T03:00:41.957Z,0.00
2018-09-22T03:01:41.688Z,0.00
2018-09-22T03:02:41.680Z,0.00
2018-09-22T03:03:41.667Z,0.00
2018-09-22T03:04:41.774Z,0.00
2018-09-22T03:05:41.655Z,0.00
2018-09-22T03:06:41.677Z,0.00
2018-09-22T03:07:41.626Z,0.00
2018-09-22T03:08:41.656Z,0.00
2018-09-22T03:09:41.718Z,0.00
2018-09-22T03:10:41.711Z,0.00
2018-09-22T03:11:41.581Z,0.00
2018-09-22T03:12:41.944Z,0.00
2018-09-22T03:13:41.823Z,0.00
2018-09-22T03:14:41.568Z,0.00
2018-09-22T03:15:41.547Z,0.00
2018-09-22T03:16:41.532Z,0.00
2018-09-22T03:17:41.518Z,0.00
2018-09-22T03:18:41.892Z,0.00
2018-09-22T03:19:41.888Z,0.00
2018-09-22T03:20:41.874Z,0.00
2018-09-22T03:21:41.492Z,0.00
2018-09-22T03:22:41.464Z,0.00
2018-09-22T03:23:41.576Z,0.00
2018-09-22T03:24:41.545Z,0.00
2018-09-22T03:25:41.440Z,0.00
2018-09-22T03:26:41.429Z,0.00
2018-09-22T03:27:41.423Z,0.00
2018-09-22T03:28:41.403Z,0.00
2018-09-22T03:29:41.403Z,0.00
2018-09-22T03:30:41.661Z,0.00
2018-09-22T03:31:41.646Z,0.00
2018-09-22T03:32:41.420Z,0.00
2018-09-22T03:33:41.345Z,0.00
2018-09-22T03:34:41.335Z,0.00
2018-09-22T03:35:41.408Z,0.00
2018-09-22T03:36:41.313Z,0.00
2018-09-22T03:37:41.321Z,0.00
2018-09-22T03:38:41.307Z,0.00
2018-09-22T03:39:41.286Z,0.00
2018-09-22T03:40:41.405Z,0.00
2018-09-22T03:41:41.345Z,0.00
2018-09-22T03:42:41.318Z,0.00
2018-09-22T03:43:41.239Z,0.00
2018-09-22T03:44:41.231Z,0.00
2018-09-22T03:45:41.235Z,0.00
2018-09-22T03:46:41.208Z,0.00
2018-09-22T03:47:41.459Z,0.00
2018-09-22T03:48:41.198Z,0.00
2018-09-22T03:49:41.185Z,0.00
2018-09-22T03:50:41.188Z,0.00
2018-09-22T03:51:41.420Z,0.00
2018-09-22T03:52:41.142Z,0.00
2018-09-22T03:53:41.137Z,0.00
2018-09-22T03:54:41.125Z,0.00
2018-09-22T03:55:41.129Z,0.00
2018-09-22T03:56:41.106Z,0.00
2018-09-22T03:57:41.366Z,0.00
2018-09-22T03:58:41.098Z,0.00
2018-09-22T03:59:41.184Z,0.00
2018-09-22T04:00:41.075Z,0.00
2018-09-22T04:01:41.175Z,0.00
2018-09-22T04:02:41.036Z,0.00
2018-09-22T04:03:41.034Z,0.00
2018-09-22T04:04:41.381Z,0.00
2018-09-22T04:05:41.036Z,0.00
2018-09-22T04:06:41.008Z,0.00
2018-09-22T04:07:40.987Z,0.00
2018-09-22T04:08:41.140Z,0.00
2018-09-22T04:09:41.087Z,0.00
2018-09-22T04:10:41.330Z,0.00
2018-09-22T04:11:40.942Z,0.00
2018-09-22T04:12:41.197Z,0.00
2018-09-22T04:13:40.934Z,0.00
2018-09-22T04:14:41.176Z,0.00
2018-09-22T04:15:40.914Z,0.00
2018-09-22T04:16:41.006Z,0.00
2018-09-22T04:17:40.977Z,0.00
2018-09-22T04:18:40.990Z,0.00
2018-09-22T04:19:40.864Z,0.00
2018-09-22T04:20:40.865Z,0.00
2018-09-22T04:21:40.840Z,0.00
2018-09-22T04:22:41.088Z,0.00
2018-09-22T04:23:40.814Z,0.00
2018-09-22T04:24:40.800Z,0.00
2018-09-22T04:25:41.073Z,0.00
2018-09-22T04:26:40.799Z,0.00
2018-09-22T04:27:40.769Z,0.00
2018-09-22T04:28:40.759Z,0.00
2018-09-22T04:29:41.068Z,0.00
2018-09-22T04:30:40.756Z,0.00
2018-09-22T04:31:41.114Z,0.00
2018-09-22T04:32:40.724Z,0.00
2018-09-22T04:33:40.713Z,0.00
2018-09-22T04:34:40.698Z,0.00
2018-09-22T04:35:40.804Z,0.00
2018-09-22T04:36:40.739Z,0.00
2018-09-22T04:37:40.948Z,0.00
2018-09-22T04:38:40.704Z,0.00
2018-09-22T04:39:40.658Z,0.00
2018-09-22T04:40:40.653Z,0.00
2018-09-22T04:41:40.742Z,0.00
2018-09-22T04:42:40.625Z,0.00
2018-09-22T04:43:40.599Z,0.00
2018-09-22T04:44:40.602Z,0.00
2018-09-22T04:45:41.044Z,0.00
2018-09-22T04:46:40.569Z,0.00
2018-09-22T04:47:40.698Z,0.00
2018-09-22T04:48:40.551Z,0.00
2018-09-22T04:49:40.540Z,0.00
2018-09-22T04:50:40.619Z,0.00
2018-09-22T04:51:40.529Z,0.00
2018-09-22T04:52:40.767Z,0.00
2018-09-22T04:53:40.588Z,0.00
2018-09-22T04:54:40.483Z,0.00
2018-09-22T04:55:40.500Z,0.00
2018-09-22T04:56:40.465Z,0.00
2018-09-22T04:57:40.716Z,0.00
2018-09-22T04:58:40.441Z,0.00
2018-09-22T04:59:40.765Z,0.00
2018-09-22T05:00:40.533Z,0.00
2018-09-22T05:01:40.419Z,0.00
2018-09-22T05:02:40.398Z,0.00
2018-09-22T05:03:40.655Z,0.00
2018-09-22T05:04:40.391Z,0.00
2018-09-22T05:05:40.377Z,0.00
2018-09-22T05:06:40.465Z,4.00
2018-09-22T05:07:40.477Z,0.00
2018-09-22T05:08:40.333Z,4.00
2018-09-22T05:09:40.454Z,4.00
2018-09-22T05:10:40.311Z,0.00
2018-09-22T05:11:40.429Z,0.00
2018-09-22T05:12:40.290Z,0.00
2018-09-22T05:13:40.305Z,0.00
2018-09-22T05:14:40.270Z,4.00
2018-09-22T05:15:40.258Z,4.00
2018-09-22T05:16:40.282Z,4.00
2018-09-22T05:17:40.249Z,4.00
2018-09-22T05:18:40.230Z,4.00
2018-09-22T05:19:40.219Z,4.00
2018-09-22T05:20:40.320Z,4.00
2018-09-22T05:21:40.213Z,4.00
2018-09-22T05:22:40.210Z,4.00
2018-09-22T05:23:40.188Z,4.00
2018-09-22T05:24:40.177Z,4.00
2018-09-22T05:25:40.227Z,8.00
2018-09-22T05:26:40.434Z,4.00
2018-09-22T05:27:40.406Z,4.00
2018-09-22T05:28:40.436Z,8.00
2018-09-22T05:29:40.121Z,8.00
2018-09-22T05:30:40.616Z,8.00
2018-09-22T05:31:40.215Z,8.00
2018-09-22T05:32:40.088Z,8.00
2018-09-22T05:33:40.337Z,8.00
2018-09-22T05:34:40.058Z,12.00
2018-09-22T05:35:40.149Z,8.00
2018-09-22T05:36:40.137Z,12.00
2018-09-22T05:37:40.033Z,12.00
2018-09-22T05:38:40.018Z,12.00
2018-09-22T05:39:40.388Z,12.00
2018-09-22T05:40:40.254Z,16.00
2018-09-22T05:41:40.060Z,16.00
2018-09-22T05:42:39.977Z,16.00
2018-09-22T05:43:39.962Z,16.00
2018-09-22T05:44:39.996Z,16.00
2018-09-22T05:45:39.940Z,20.00
2018-09-22T05:46:40.089Z,16.00
2018-09-22T05:47:39.927Z,20.00
2018-09-22T05:48:40.188Z,20.00
2018-09-22T05:49:40.013Z,20.00
2018-09-22T05:50:39.900Z,20.00
2018-09-22T05:51:40.268Z,20.00
2018-09-22T05:52:39.874Z,20.00
2018-09-22T05:53:39.869Z,24.00
2018-09-22T05:54:39.844Z,24.00
2018-09-22T05:55:39.840Z,24.00
2018-09-22T05:56:40.226Z,24.00
2018-09-22T05:57:39.820Z,24.00
2018-09-22T05:58:39.923Z,24.00
2018-09-22T05:59:39.795Z,28.00
2018-09-22T06:00:40.156Z,28.00
2018-09-22T06:01:39.891Z,24.00
2018-09-22T06:02:39.760Z,28.00
2018-09-22T06:03:39.767Z,28.00
2018-09-22T06:04:40.000Z,28.00
2018-09-22T06:05:39.728Z,28.00
2018-09-22T06:06:39.732Z,32.00
2018-09-22T06:07:39.762Z,32.00
2018-09-22T06:08:39.958Z,32.00
2018-09-22T06:09:39.810Z,32.00
2018-09-22T06:10:39.676Z,36.00
2018-09-22T06:11:39.957Z,36.00
2018-09-22T06:12:39.802Z,40.00
2018-09-22T06:13:39.652Z,40.00
2018-09-22T06:14:39.741Z,40.00
2018-09-22T06:15:39.876Z,40.00
2018-09-22T06:16:39.728Z,40.00
2018-09-22T06:17:39.884Z,40.00
2018-09-22T06:18:41.510Z,40.00
2018-09-22T06:19:39.736Z,40.00
2018-09-22T06:20:41.345Z,40.00
2018-09-22T06:21:39.689Z,48.00
2018-09-22T06:22:39.562Z,48.00
2018-09-22T06:23:39.539Z,48.00
2018-09-22T06:24:39.522Z,48.00
2018-09-22T06:25:39.513Z,48.00
2018-09-22T06:26:39.523Z,52.00
2018-09-22T06:27:39.495Z,56.00
2018-09-22T06:28:39.524Z,56.00
2018-09-22T06:29:39.545Z,56.00
2018-09-22T06:30:39.593Z,56.00
2018-09-22T06:31:39.460Z,60.00
2018-09-22T06:32:39.443Z,60.00
2018-09-22T06:33:39.914Z,56.00
2018-09-22T06:34:39.421Z,60.00
2018-09-22T06:35:39.563Z,60.00
2018-09-22T06:36:39.396Z,60.00
2018-09-22T06:37:39.815Z,64.00
2018-09-22T06:38:39.378Z,64.00
2018-09-22T06:39:39.487Z,64.00
2018-09-22T06:40:39.478Z,64.00
2018-09-22T06:41:39.447Z,64.00
2018-09-22T06:42:39.355Z,64.00
2018-09-22T06:43:39.339Z,64.00
2018-09-22T06:44:39.320Z,68.00
2018-09-22T06:45:39.320Z,68.00
2018-09-22T06:46:39.288Z,68.00
2018-09-22T06:47:39.374Z,68.00
2018-09-22T06:48:39.388Z,72.00
2018-09-22T06:49:39.257Z,72.00
2018-09-22T06:50:39.360Z,72.00
2018-09-22T06:51:39.351Z,72.00
2018-09-22T06:52:39.363Z,76.00
2018-09-22T06:53:39.221Z,80.00
2018-09-22T06:54:39.473Z,80.00
2018-09-22T06:55:39.194Z,80.00
2018-09-22T06:56:39.184Z,84.00
2018-09-22T06:57:39.203Z,84.00
2018-09-22T06:58:39.165Z,84.00
2018-09-22T06:59:39.263Z,88.00
2018-09-22T07:00:39.248Z,84.00
2018-09-22T07:01:39.132Z,84.00
2018-09-22T07:02:39.137Z,84.00
2018-09-22T07:03:39.379Z,84.00
2018-09-22T07:04:39.111Z,84.00
2018-09-22T07:05:39.087Z,80.00
2018-09-22T07:06:39.221Z,80.00
2018-09-22T07:07:39.149Z,80.00
2018-09-22T07:08:39.062Z,84.00
2018-09-22T07:09:39.066Z,84.00
2018-09-22T07:10:39.045Z,84.00
2018-09-22T07:11:39.134Z,88.00
2018-09-22T07:12:39.034Z,88.00
2018-09-22T07:13:39.055Z,92.00
2018-09-22T07:14:38.995Z,92.00
2018-09-22T07:15:39.093Z,96.00
2018-09-22T07:16:38.976Z,96.00
2018-09-22T07:17:39.008Z,96.00
2018-09-22T07:18:39.072Z,100.00
2018-09-22T07:19:39.120Z,100.00
2018-09-22T07:20:39.314Z,104.00
2018-09-22T07:21:38.920Z,104.00
2018-09-22T07:22:38.921Z,108.00
2018-09-22T07:23:39.171Z,108.00
2018-09-22T07:24:38.893Z,112.00
2018-09-22T07:25:38.875Z,112.00
2018-09-22T07:26:38.864Z,108.00
2018-09-22T07:27:38.987Z,104.00
2018-09-22T07:28:38.857Z,100.00
2018-09-22T07:29:39.095Z,100.00
2018-09-22T07:30:38.878Z,96.00
2018-09-22T07:31:38.816Z,96.00
2018-09-22T07:32:38.819Z,100.00
2018-09-22T07:33:39.053Z,100.00
2018-09-22T07:34:38.895Z,100.00
2018-09-22T07:35:38.865Z,100.00
2018-09-22T07:36:38.895Z,100.00
2018-09-22T07:37:38.773Z,104.00
2018-09-22T07:38:38.802Z,104.00
2018-09-22T07:39:38.729Z,100.00
2018-09-22T07:40:38.713Z,104.00
2018-09-22T07:41:38.711Z,104.00
2018-09-22T07:42:39.085Z,104.00
2018-09-22T07:43:38.694Z,104.00
2018-09-22T07:44:38.817Z,104.00
2018-09-22T07:45:38.730Z,112.00
2018-09-22T07:46:38.651Z,116.00
2018-09-22T07:47:38.655Z,120.00
2018-09-22T07:48:38.643Z,120.00
2018-09-22T07:49:38.623Z,124.00
2018-09-22T07:50:38.719Z,128.00
2018-09-22T07:51:38.857Z,128.00
2018-09-22T07:52:38.779Z,128.00
2018-09-22T07:53:38.606Z,124.00
2018-09-22T07:54:38.676Z,124.00
2018-09-22T07:55:38.555Z,124.00
2018-09-22T07:56:38.546Z,124.00
2018-09-22T07:57:38.567Z,124.00
2018-09-22T07:58:38.541Z,128.00
2018-09-22T07:59:39.576Z,128.00
2018-09-22T08:00:38.507Z,128.00
2018-09-22T08:01:38.565Z,128.00
2018-09-22T08:02:38.495Z,124.00
2018-09-22T08:03:38.850Z,124.00
2018-09-22T08:04:38.470Z,128.00
2018-09-22T08:05:38.460Z,128.00
2018-09-22T08:06:38.439Z,124.00
2018-09-22T08:07:38.436Z,128.00
2018-09-22T08:08:38.568Z,128.00
2018-09-22T08:09:38.490Z,128.00
2018-09-22T08:10:38.527Z,136.00
2018-09-22T08:11:38.539Z,136.00
2018-09-22T08:12:38.383Z,144.00
2018-09-22T08:13:38.366Z,148.00
2018-09-22T08:14:38.625Z,156.00
2018-09-22T08:15:38.610Z,164.00
2018-09-22T08:16:38.333Z,168.00
2018-09-22T08:17:38.376Z,168.00
2018-09-22T08:18:38.615Z,168.00
2018-09-22T08:19:38.314Z,168.00
2018-09-22T08:20:38.411Z,172.00
2018-09-22T08:21:38.612Z,172.00
2018-09-22T08:22:38.266Z,176.00
2018-09-22T08:23:38.376Z,176.00
2018-09-22T08:24:38.255Z,176.00
2018-09-22T08:25:38.368Z,176.00
2018-09-22T08:26:38.329Z,176.00
2018-09-22T08:27:38.230Z,172.00
2018-09-22T08:28:38.309Z,172.00
2018-09-22T08:29:40.310Z,168.00
2018-09-22T08:30:38.241Z,168.00
2018-09-22T08:31:38.285Z,168.00
2018-09-22T08:32:38.177Z,172.00
2018-09-22T08:33:38.165Z,176.00
2018-09-22T08:34:38.157Z,180.00
2018-09-22T08:35:38.133Z,180.00
2018-09-22T08:36:38.169Z,184.00
2018-09-22T08:37:38.230Z,184.00
2018-09-22T08:38:38.382Z,180.00
2018-09-22T08:39:38.153Z,180.00
2018-09-22T08:40:38.083Z,180.00
2018-09-22T08:41:38.090Z,184.00
2018-09-22T08:42:38.069Z,188.00
2018-09-22T08:43:38.180Z,192.00
2018-09-22T08:44:38.310Z,192.00
2018-09-22T08:45:38.024Z,192.00
2018-09-22T08:46:38.014Z,192.00
2018-09-22T08:47:38.007Z,192.00
2018-09-22T08:48:38.265Z,192.00
2018-09-22T08:49:38.157Z,192.00
2018-09-22T08:50:37.969Z,196.00
2018-09-22T08:51:37.972Z,200.00
2018-09-22T08:52:38.201Z,192.00
2018-09-22T08:53:37.957Z,184.00
2018-09-22T08:54:37.945Z,184.00
2018-09-22T08:55:37.914Z,184.00
2018-09-22T08:56:38.018Z,180.00
2018-09-22T08:57:37.898Z,172.00
2018-09-22T08:58:37.901Z,172.00
2018-09-22T08:59:37.891Z,176.00
2018-09-22T09:00:38.308Z,176.00
2018-09-22T09:01:38.149Z,176.00
2018-09-22T09:02:37.854Z,176.00
2018-09-22T09:03:37.972Z,176.00
2018-09-22T09:04:37.841Z,172.00
2018-09-22T09:05:37.825Z,168.00
2018-09-22T09:06:37.800Z,168.00
2018-09-22T09:07:38.158Z,168.00
2018-09-22T09:08:37.788Z,168.00
2018-09-22T09:09:37.811Z,172.00
2018-09-22T09:10:37.776Z,168.00
2018-09-22T09:11:37.759Z,168.00
2018-09-22T09:12:37.759Z,164.00
2018-09-22T09:13:38.149Z,164.00
2018-09-22T09:14:37.917Z,164.00
2018-09-22T09:15:37.717Z,160.00
2018-09-22T09:16:37.691Z,164.00
2018-09-22T09:17:37.688Z,164.00
2018-09-22T09:18:37.965Z,176.00
2018-09-22T09:19:37.675Z,176.00
2018-09-22T09:20:37.651Z,188.00
2018-09-22T09:21:37.641Z,184.00
2018-09-22T09:22:37.628Z,188.00
2018-09-22T09:23:37.740Z,192.00
2018-09-22T09:24:37.638Z,192.00
2018-09-22T09:25:37.608Z,196.00
2018-09-22T09:26:37.618Z,192.00
2018-09-22T09:27:37.734Z,192.00
2018-09-22T09:28:37.575Z,188.00
2018-09-22T09:29:37.691Z,184.00
2018-09-22T09:30:37.618Z,176.00
2018-09-22T09:31:37.535Z,164.00
2018-09-22T09:32:37.599Z,160.00
2018-09-22T09:33:37.509Z,160.00
2018-09-22T09:34:37.527Z,168.00
2018-09-22T09:35:37.774Z,172.00
2018-09-22T09:36:37.487Z,168.00
2018-09-22T09:37:37.864Z,148.00
2018-09-22T09:38:37.565Z,140.00
2018-09-22T09:39:37.472Z,128.00
2018-09-22T09:40:37.579Z,116.00
2018-09-22T09:41:37.708Z,112.00
2018-09-22T09:42:37.476Z,116.00
2018-09-22T09:43:37.475Z,112.00
2018-09-22T09:44:37.416Z,116.00
2018-09-22T09:45:37.437Z,128.00
2018-09-22T09:46:37.467Z,140.00
2018-09-22T09:47:37.751Z,152.00
2018-09-22T09:48:37.381Z,172.00
2018-09-22T09:49:37.373Z,188.00
2018-09-22T09:50:37.333Z,184.00
2018-09-22T09:51:37.320Z,176.00
2018-09-22T09:52:37.307Z,180.00
2018-09-22T09:53:37.300Z,204.00
2018-09-22T09:54:37.965Z,212.00
2018-09-22T09:55:37.287Z,216.00
2018-09-22T09:56:37.285Z,228.00
2018-09-22T09:57:37.589Z,240.00
2018-09-22T09:58:37.244Z,216.00
2018-09-22T09:59:37.259Z,188.00
2018-09-22T10:00:37.391Z,168.00
2018-09-22T10:01:37.212Z,176.00
2018-09-22T10:02:37.327Z,156.00
2018-09-22T10:03:37.192Z,164.00
2018-09-22T10:04:37.409Z,196.00
2018-09-22T10:05:37.179Z,196.00
2018-09-22T10:06:37.175Z,184.00
2018-09-22T10:07:37.274Z,220.00
2018-09-22T10:08:37.250Z,244.00
2018-09-22T10:09:37.508Z,240.00
2018-09-22T10:10:37.380Z,240.00
2018-09-22T10:11:37.247Z,220.00
2018-09-22T10:12:37.102Z,204.00
2018-09-22T10:13:37.213Z,200.00
2018-09-22T10:14:37.079Z,200.00
2018-09-22T10:15:37.082Z,192.00
2018-09-22T10:16:37.087Z,200.00
2018-09-22T10:17:37.222Z,228.00
2018-09-22T10:18:37.165Z,248.00
2018-09-22T10:19:37.140Z,256.00
2018-09-22T10:20:37.129Z,260.00
2018-09-22T10:21:37.288Z,240.00
2018-09-22T10:22:37.262Z,232.00
2018-09-22T10:23:36.983Z,216.00
2018-09-22T10:24:37.069Z,208.00
2018-09-22T10:25:36.973Z,204.00
2018-09-22T10:26:37.311Z,216.00
2018-09-22T10:27:36.948Z,220.00
2018-09-22T10:28:37.715Z,236.00
2018-09-22T10:29:36.915Z,252.00
2018-09-22T10:30:38.009Z,264.00
2018-09-22T10:31:36.905Z,260.00
2018-09-22T10:32:36.883Z,244.00
2018-09-22T10:33:37.030Z,240.00
2018-09-22T10:34:36.885Z,244.00
2018-09-22T10:35:37.144Z,252.00
2018-09-22T10:36:36.840Z,260.00
2018-09-22T10:37:36.965Z,268.00
2018-09-22T10:38:36.819Z,276.00
2018-09-22T10:39:36.928Z,288.00
2018-09-22T10:40:37.239Z,272.00
2018-09-22T10:41:36.791Z,264.00
2018-09-22T10:42:36.900Z,264.00
2018-09-22T10:43:38.713Z,272.00
2018-09-22T10:44:37.027Z,264.00
2018-09-22T10:45:39.599Z,260.00
2018-09-22T10:46:36.869Z,272.00
2018-09-22T10:47:36.794Z,284.00
2018-09-22T10:48:36.739Z,300.00
2018-09-22T10:49:36.840Z,312.00
2018-09-22T10:50:36.808Z,316.00
2018-09-22T10:51:36.684Z,320.00
2018-09-22T10:52:37.092Z,312.00
2018-09-22T10:53:36.674Z,316.00
2018-09-22T10:54:36.652Z,316.00
2018-09-22T10:55:36.776Z,316.00
2018-09-22T10:56:39.540Z,316.00
2018-09-22T10:57:36.620Z,312.00
2018-09-22T10:58:36.703Z,312.00
2018-09-22T10:59:37.120Z,312.00
2018-09-22T11:00:36.716Z,308.00
2018-09-22T11:01:37.404Z,308.00
2018-09-22T11:02:36.628Z,316.00
2018-09-22T11:03:36.557Z,308.00
2018-09-22T11:04:36.600Z,308.00
2018-09-22T11:05:36.624Z,312.00
2018-09-22T11:06:36.699Z,312.00
2018-09-22T11:07:36.533Z,312.00
2018-09-22T11:08:36.550Z,300.00
2018-09-22T11:09:36.606Z,296.00
2018-09-22T11:10:36.497Z,288.00
2018-09-22T11:11:36.577Z,292.00
2018-09-22T11:12:36.473Z,292.00
2018-09-22T11:13:36.458Z,288.00
2018-09-22T11:14:36.584Z,288.00
2018-09-22T11:15:36.565Z,288.00
2018-09-22T11:16:36.501Z,280.00
2018-09-22T11:17:36.406Z,268.00
2018-09-22T11:18:36.413Z,264.00
2018-09-22T11:19:36.458Z,256.00
2018-09-22T11:20:36.520Z,244.00
2018-09-22T11:21:36.367Z,240.00
2018-09-22T11:22:36.732Z,244.00
2018-09-22T11:23:36.344Z,260.00
2018-09-22T11:24:36.852Z,276.00
2018-09-22T11:25:37.152Z,280.00
2018-09-22T11:26:36.317Z,280.00
2018-09-22T11:27:36.410Z,280.00
2018-09-22T11:28:36.422Z,280.00
2018-09-22T11:29:37.531Z,284.00
2018-09-22T11:30:37.486Z,280.00
2018-09-22T11:31:36.270Z,272.00
2018-09-22T11:32:37.356Z,268.00
2018-09-22T11:33:36.496Z,264.00
2018-09-22T11:34:36.221Z,256.00
2018-09-22T11:35:36.352Z,248.00
2018-09-22T11:36:36.279Z,252.00
2018-09-22T11:37:36.200Z,264.00
2018-09-22T11:38:36.461Z,288.00
2018-09-22T11:39:36.550Z,292.00
2018-09-22T11:40:36.351Z,300.00
2018-09-22T11:41:36.157Z,308.00
2018-09-22T11:42:36.192Z,304.00
2018-09-22T11:43:36.144Z,300.00
2018-09-22T11:44:36.125Z,296.00
2018-09-22T11:45:36.319Z,288.00
2018-09-22T11:46:36.116Z,272.00
2018-09-22T11:47:36.245Z,252.00
2018-09-22T11:48:36.349Z,244.00
2018-09-22T11:49:36.184Z,244.00
2018-09-22T11:50:36.074Z,232.00
2018-09-22T11:51:36.181Z,220.00
2018-09-22T11:52:36.184Z,200.00
2018-09-22T11:53:36.040Z,212.00
2018-09-22T11:54:36.123Z,196.00
2018-09-22T11:55:36.271Z,168.00
2018-09-22T11:56:36.084Z,148.00
2018-09-22T11:57:36.095Z,140.00
2018-09-22T11:58:35.978Z,124.00
2018-09-22T11:59:35.960Z,104.00
2018-09-22T12:00:35.970Z,88.00
2018-09-22T12:01:36.220Z,84.00
2018-09-22T12:02:36.030Z,92.00
2018-09-22T12:03:35.921Z,100.00
2018-09-22T12:04:36.033Z,96.00
2018-09-22T12:05:35.899Z,96.00
2018-09-22T12:06:37.586Z,104.00
2018-09-22T12:07:36.008Z,100.00
2018-09-22T12:08:36.032Z,88.00
2018-09-22T12:09:35.866Z,88.00
2018-09-22T12:10:35.863Z,92.00
2018-09-22T12:11:35.862Z,100.00
2018-09-22T12:12:35.938Z,96.00
2018-09-22T12:13:35.915Z,100.00
2018-09-22T12:14:35.800Z,104.00
2018-09-22T12:15:35.888Z,112.00
2018-09-22T12:16:36.084Z,124.00
2018-09-22T12:17:35.840Z,116.00
2018-09-22T12:18:35.772Z,108.00
2018-09-22T12:19:35.746Z,92.00
2018-09-22T12:20:35.755Z,84.00
2018-09-22T12:21:36.118Z,84.00
2018-09-22T12:22:35.816Z,92.00
2018-09-22T12:23:35.855Z,92.00
2018-09-22T12:24:35.693Z,88.00
2018-09-22T12:25:35.855Z,84.00
2018-09-22T12:26:35.722Z,68.00
2018-09-22T12:27:35.676Z,60.00
2018-09-22T12:28:35.654Z,60.00
2018-09-22T12:29:35.653Z,52.00
2018-09-22T12:30:35.632Z,48.00
2018-09-22T12:31:35.767Z,52.00
2018-09-22T12:32:35.625Z,56.00
2018-09-22T12:33:35.713Z,72.00
2018-09-22T12:34:35.588Z,80.00
2018-09-22T12:35:35.672Z,76.00
2018-09-22T12:36:35.921Z,80.00
2018-09-22T12:37:35.835Z,84.00
2018-09-22T12:38:35.641Z,88.00
2018-09-22T12:39:35.642Z,108.00
2018-09-22T12:40:35.793Z,140.00
2018-09-22T12:41:35.649Z,160.00
2018-09-22T12:42:35.510Z,176.00
2018-09-22T12:43:35.564Z,188.00
2018-09-22T12:44:35.563Z,204.00
2018-09-22T12:45:35.467Z,212.00
2018-09-22T12:46:35.474Z,212.00
2018-09-22T12:47:35.566Z,212.00
2018-09-22T12:48:35.438Z,216.00
2018-09-22T12:49:35.542Z,208.00
2018-09-22T12:50:35.700Z,204.00
2018-09-22T12:51:35.681Z,200.00
2018-09-22T12:52:35.411Z,204.00
2018-09-22T12:53:35.574Z,220.00